Driver, Virginia
Current Conditions -  °F | °C
As of 9:35 PM on Tuesday 21 Oct 2014 (Local Time) from KPVG Reporting Station
Overcast Overcast  
Wind Chill: 55°   Ceiling: 11000
Heat Index: 55°   Visibility: 10mi
Dew Point: 54°   Wind: 0mph
Humidity: 94%   Direction: NA
Pressure: 29.87"   Gusts: NA
Location:  36.8308°N, 76.4809°W
Report Text: KPVG 220135Z AUTO 00000KT 10SM OVC110 13/12 A2987 RMK AO1
Loading
Personal Weather Stations






























Interactive Weather Map New forecast layout! Learn more

10-Day Weather Forecast

Advertisements
Track Severe Weather on mobile